CheckWX is a tool to help pilots better visualize weather data.  It is not intended as a substitute for an official pre-flight weather briefing.

05:47:37 UTC

D25 METAR
Manitowish Waters Airport
Manitowish Waters, Wisconsin, USA
Current

13 mins ago

KD25 280535Z AUTO 29004KT 10SM OVC034 M13/M18 A2994 RMK AO2 T11351176
Observed
Feb-28 @ 05:35 UTC
Wind
  • 290° at 4 KTS
Visibility
10 SM
Flight Rules
VFR
Cloud Levels
  • Overcast at 3,400' AGL
Temperature
-14°C / 7°F
Dewpoint
-18°C / -0°F
Humidity
72%
Altimeter
29.94" Hg
Pressure
1013.92 hPa
Previous

33 mins ago

KD25 280515Z AUTO 29003KT 10SM OVC034 M14/M18 A2994 RMK AO2 T11421181
Observed
Feb-28 @ 05:15 UTC
Wind
  • 290° at 3 KTS
Visibility
10 SM
Flight Rules
VFR
Cloud Levels
  • Overcast at 3,400' AGL
Temperature
-14°C / 7°F
Dewpoint
-18°C / -0°F
Humidity
72%
Altimeter
29.94" Hg
Pressure
1013.92 hPa
Previous

53 mins ago

KD25 280455Z AUTO 29004KT 10SM OVC034 M16/M19 A2994 RMK AO2 T11581190
Observed
Feb-28 @ 04:55 UTC
Wind
  • 290° at 4 KTS
Visibility
10 SM
Flight Rules
VFR
Cloud Levels
  • Overcast at 3,400' AGL
Temperature
-16°C / 3°F
Dewpoint
-19°C / -2°F
Humidity
78%
Altimeter
29.94" Hg
Pressure
1013.92 hPa